Evans, Illinois
Current Conditions -  °F | °C
As of 1:55 AM on Friday 31 Oct 2014 (Local Time) from KC75 Reporting Station
Overcast Overcast  
Wind Chill: 42°   Ceiling: 5000
Heat Index: 46°   Visibility: 10mi
Dew Point: 39°   Wind: 7mph
Humidity: 76%   Direction: 300°WNW
Pressure: 30.07"   Gusts: NA
Location:  41.0632°N, 89.0208°W
Report Text: KC75 310655Z AUTO 30006KT 10SM OVC050 08/04 A3007 RMK AO2 T00770037
Loading
Personal Weather Stations






























Interactive Weather Map
Tropical Storm Tracking
New forecast layout! Learn more

10-Day Weather Forecast

Advertisements
Track Severe Weather on mobile